Kaami — C6VO9 — position and weather

sailwx.info

Track history (hours):
 
Tides and Currents Weather Stations Pressure Air Temp Water Temp Dewpoint Dewpoint Depression Visibility Wind Speed Wind Dir Waves Ship Positions

Kaami

Last reported at 2014-Jul-31 23:33 UTC. Time now 2014-Jul-31 23:43 UTC.
Position N 53°33' E 000°04'.

Length 90 m; draft 3 m.

Type: Cargo ship. MMSI: 308542000.

Date/timePositionNaut miles runAvg speedWind from/ knotsBaromVisibWave heightAir tempDewpointWater temp
2014-Jul-31 23:33N 53°33' E 000°04'0 0.0
2014-Jul-31 22:33N 53°33' E 000°04'1 1.5
2014-Jul-31 21:33N 53°34' E 000°03'10 9.7
2014-Jul-31 20:33N 53°39' W 000°11'7 6.6
2014-Jul-31 19:33N 53°43' W 000°21'1 0.8
2014-Jul-31 18:25N 53°43' W 000°22'0 0.0
2014-Jul-31 17:22N 53°43' W 000°22'0 0.0
2014-Jul-31 16:28N 53°43' W 000°22'0 0.0
2014-Jul-31 15:28N 53°43' W 000°22'0 0.0
2014-Jul-31 14:31N 53°43' W 000°22'0 0.0
2014-Jul-31 13:28N 53°43' W 000°22'0 0.0
2014-Jul-31 12:28N 53°43' W 000°22'0 0.0
2014-Jul-31 11:31N 53°43' W 000°22'0 0.0
2014-Jul-31 10:28N 53°43' W 000°22'0 0.0
2014-Jul-31 09:19N 53°43' W 000°22'0 0.0
2014-Jul-31 08:13N 53°43' W 000°22'0 0.0
2014-Jul-31 07:31N 53°43' W 000°22'0 0.0
2014-Jul-31 06:31N 53°43' W 000°22'0 0.0
2014-Jul-31 05:19N 53°43' W 000°22'0 0.0
2014-Jul-31 04:28N 53°43' W 000°22'0 0.0
2014-Jul-31 03:31N 53°43' W 000°22'0 0.0
2014-Jul-31 02:19N 53°43' W 000°22'0 0.0
2014-Jul-31 01:22N 53°43' W 000°22'0 0.0
2014-Jul-31 00:16N 53°43' W 000°22'0 0.0
2014-Jul-30 23:22N 53°43' W 000°22'0 0.0
2014-Jul-30 22:25N 53°43' W 000°22'0 0.0
2014-Jul-30 21:07N 53°43' W 000°22'0 0.0
2014-Jul-30 20:25N 53°43' W 000°22'0 0.0
2014-Jul-30 19:33N 53°43' W 000°22'4 3.9
2014-Jul-30 18:32N 53°43' W 000°15'1010.6
2014-Jul-30 17:33N 53°36' W 000°03'10 9.7
2014-Jul-30 16:33N 53°33' E 000°13'5 5.2
2014-Jul-30 15:33N 53°33' E 000°22'3 2.2
2014-Jul-30 14:18N 53°35' E 000°24'0 0.0
2014-Jul-30 13:33N 53°35' E 000°24'0 0.0
2014-Jul-30 12:18N 53°36' E 000°24'0 0.0
2014-Jul-30 11:33N 53°36' E 000°24'0 0.0
2014-Jul-30 10:30N 53°36' E 000°24'0 0.2
2014-Jul-30 09:33N 53°35' E 000°25'6 5.8
2014-Jul-30 08:33N 53°41' E 000°27'367 9.1
2014-Jul-28 16:07N 57°22' E 009°04'40 8.6
2014-Jul-28 11:30N 57°41' E 010°09'8 8.6
2014-Jul-28 10:33N 57°45' E 010°23'8 8.3
2014-Jul-28 09:33N 57°47' E 010°38'8 7.8
2014-Jul-28 08:33N 57°45' E 010°52'8 8.3
2014-Jul-28 07:33N 57°39' E 011°03'9 8.8
2014-Jul-28 06:33N 57°33' E 011°15'9 9.0
2014-Jul-28 05:33N 57°27' E 011°26'9 9.3
2014-Jul-28 04:33N 57°18' E 011°32'9 9.2
2014-Jul-28 03:33N 57°09' E 011°38'10 9.1
2014-Jul-28 02:28N 57°00' E 011°45'8 9.2
2014-Jul-28 01:33N 56°52' E 011°50'9 9.2
2014-Jul-28 00:33N 56°44' E 011°55'9 9.2
2014-Jul-27 23:33N 56°34' E 011°58'9 9.2
2014-Jul-27 22:33N 56°26' E 012°06'12 9.5
2014-Jul-27 21:15N 56°17' E 012°20'7 9.8
2014-Jul-27 20:33N 56°11' E 012°27'1010.2
2014-Jul-27 19:33N 56°03' E 012°39'9 9.3
2014-Jul-27 18:33N 55°55' E 012°44'9 9.2
2014-Jul-27 17:33N 55°46' E 012°42'9 9.2
2014-Jul-27 16:33N 55°36' E 012°42'9 8.9
2014-Jul-27 15:33N 55°27' E 012°42'9 8.9
2014-Jul-27 14:33N 55°19' E 012°42'9 9.2
2014-Jul-27 13:33N 55°16' E 012°58'9 9.4
2014-Jul-27 12:33N 55°15' E 013°14'19 9.2
2014-Jul-27 10:33N 55°14' E 013°47'19 9.3
2014-Jul-27 08:30N 55°15' E 014°20'9 9.5
2014-Jul-27 07:32N 55°22' E 014°31'9 8.9
2014-Jul-27 06:33N 55°27' E 014°44'9 9.1
2014-Jul-27 05:33N 55°27' E 014°60'10 9.1
2014-Jul-27 04:30N 55°28' E 015°17'9 9.0
2014-Jul-27 03:33N 55°28' E 015°32'9 8.9
2014-Jul-27 02:33N 55°29' E 015°48'11 8.9
2014-Jul-27 01:16N 55°30' E 016°08'25 9.1
2014-Jul-26 22:33N 55°32' E 016°51'9 9.3
2014-Jul-26 21:33N 55°33' E 017°08'9 9.4
2014-Jul-26 20:33N 55°34' E 017°24'10 9.5
2014-Jul-26 19:33N 55°35' E 017°41'10 9.6
2014-Jul-26 18:33N 55°35' E 017°58'9 9.3
2014-Jul-26 17:33N 55°36' E 018°14'9 9.4
2014-Jul-26 16:33N 55°37' E 018°31'9 9.2
2014-Jul-26 15:33N 55°37' E 018°47'9 9.0
2014-Jul-26 14:33N 55°38' E 019°03'9 9.1
2014-Jul-26 13:33N 55°39' E 019°19'9 9.1
2014-Jul-26 12:33N 55°40' E 019°35'9 9.2
2014-Jul-26 11:33N 55°41' E 019°51'9 9.1
2014-Jul-26 10:33N 55°42' E 020°08'9 9.1
2014-Jul-26 09:31N 55°42' E 020°24'10 9.3
2014-Jul-26 08:27N 55°43' E 020°42'14 0.5
2014-Jul-25 05:29N 55°43' E 021°06'7 7.3
2014-Jul-25 04:31N 55°42' E 020°54'9 9.5
2014-Jul-25 03:33N 55°39' E 020°39'10 9.9
2014-Jul-25 02:33N 55°35' E 020°23'10 9.8
2014-Jul-25 01:33N 55°31' E 020°07'10 9.8
2014-Jul-25 00:33N 55°28' E 019°51'10 9.8
2014-Jul-24 23:34N 55°24' E 019°35'10 9.7
2014-Jul-24 22:33N 55°21' E 019°19'10 9.6
2014-Jul-24 21:33N 55°17' E 019°03'10 9.6
2014-Jul-24 20:33N 55°13' E 018°48'10 9.6
2014-Jul-24 19:33N 55°09' E 018°33'9 9.5
2014-Jul-24 18:33N 55°06' E 018°17'9 9.2
2014-Jul-24 17:33N 55°02' E 018°02'9 9.2
2014-Jul-24 16:33N 54°59' E 017°48'9 9.3
2014-Jul-24 15:33N 54°55' E 017°33'9 9.1
2014-Jul-24 14:33N 54°52' E 017°17'9 9.0
2014-Jul-24 13:33N 54°50' E 017°02'9 8.9
2014-Jul-24 12:33N 54°48' E 016°47'9 8.9
2014-Jul-24 11:33N 54°47' E 016°32'9 8.8
2014-Jul-24 10:33N 54°42' E 016°18'9 9.1
2014-Jul-24 09:33N 54°38' E 016°05'9 9.0
2014-Jul-24 08:33N 54°33' E 015°51'9 9.0
2014-Jul-24 07:33N 54°29' E 015°38'9 9.0
2014-Jul-24 06:33N 54°24' E 015°25'9 9.2
2014-Jul-24 05:33N 54°19' E 015°11'10 9.6
2014-Jul-24 04:33N 54°14' E 014°57'10 9.8
2014-Jul-24 03:31N 54°09' E 014°42'9 9.5
2014-Jul-24 02:33N 54°05' E 014°29'9 8.9
2014-Jul-24 01:33N 53°59' E 014°16'8 7.6
2014-Jul-24 00:33N 53°52' E 014°17'9 9.2
2014-Jul-23 23:33N 53°44' E 014°26'10 9.9
2014-Jul-23 22:33N 53°36' E 014°35'  
Track history (hours):
 
Tides and Currents Weather Stations Pressure Air Temp Water Temp Dewpoint Dewpoint Depression Visibility Wind Speed Wind Dir Waves Ship Positions

Kaami

Last reported at 2014-Jul-31 23:33 UTC. Time now 2014-Jul-31 23:43 UTC.
Position N 53°33' E 000°04'.

Length 90 m; draft 3 m.

Type: Cargo ship. MMSI: 308542000.

Date/timePositionNaut miles runAvg speedWind from/ knotsBaromVisibWave heightAir tempDewpointWater temp
2014-Jul-31 23:33N 53°33' E 000°04'0 0.0
2014-Jul-31 22:33N 53°33' E 000°04'1 1.5
2014-Jul-31 21:33N 53°34' E 000°03'10 9.7
2014-Jul-31 20:33N 53°39' W 000°11'7 6.6
2014-Jul-31 19:33N 53°43' W 000°21'1 0.8
2014-Jul-31 18:25N 53°43' W 000°22'0 0.0
2014-Jul-31 17:22N 53°43' W 000°22'0 0.0
2014-Jul-31 16:28N 53°43' W 000°22'0 0.0
2014-Jul-31 15:28N 53°43' W 000°22'0 0.0
2014-Jul-31 14:31N 53°43' W 000°22'0 0.0
2014-Jul-31 13:28N 53°43' W 000°22'0 0.0
2014-Jul-31 12:28N 53°43' W 000°22'0 0.0
2014-Jul-31 11:31N 53°43' W 000°22'0 0.0
2014-Jul-31 10:28N 53°43' W 000°22'0 0.0
2014-Jul-31 09:19N 53°43' W 000°22'0 0.0
2014-Jul-31 08:13N 53°43' W 000°22'0 0.0
2014-Jul-31 07:31N 53°43' W 000°22'0 0.0
2014-Jul-31 06:31N 53°43' W 000°22'0 0.0
2014-Jul-31 05:19N 53°43' W 000°22'0 0.0
2014-Jul-31 04:28N 53°43' W 000°22'0 0.0
2014-Jul-31 03:31N 53°43' W 000°22'0 0.0
2014-Jul-31 02:19N 53°43' W 000°22'0 0.0
2014-Jul-31 01:22N 53°43' W 000°22'0 0.0
2014-Jul-31 00:16N 53°43' W 000°22'0 0.0
2014-Jul-30 23:22N 53°43' W 000°22'0 0.0
2014-Jul-30 22:25N 53°43' W 000°22'0 0.0
2014-Jul-30 21:07N 53°43' W 000°22'0 0.0
2014-Jul-30 20:25N 53°43' W 000°22'0 0.0
2014-Jul-30 19:33N 53°43' W 000°22'4 3.9
2014-Jul-30 18:32N 53°43' W 000°15'1010.6
2014-Jul-30 17:33N 53°36' W 000°03'10 9.7
2014-Jul-30 16:33N 53°33' E 000°13'5 5.2
2014-Jul-30 15:33N 53°33' E 000°22'3 2.2
2014-Jul-30 14:18N 53°35' E 000°24'0 0.0
2014-Jul-30 13:33N 53°35' E 000°24'0 0.0
2014-Jul-30 12:18N 53°36' E 000°24'0 0.0
2014-Jul-30 11:33N 53°36' E 000°24'0 0.0
2014-Jul-30 10:30N 53°36' E 000°24'0 0.2
2014-Jul-30 09:33N 53°35' E 000°25'6 5.8
2014-Jul-30 08:33N 53°41' E 000°27'367 9.1
2014-Jul-28 16:07N 57°22' E 009°04'40 8.6
2014-Jul-28 11:30N 57°41' E 010°09'8 8.6
2014-Jul-28 10:33N 57°45' E 010°23'8 8.3
2014-Jul-28 09:33N 57°47' E 010°38'8 7.8
2014-Jul-28 08:33N 57°45' E 010°52'8 8.3
2014-Jul-28 07:33N 57°39' E 011°03'9 8.8
2014-Jul-28 06:33N 57°33' E 011°15'9 9.0
2014-Jul-28 05:33N 57°27' E 011°26'9 9.3
2014-Jul-28 04:33N 57°18' E 011°32'9 9.2
2014-Jul-28 03:33N 57°09' E 011°38'10 9.1
2014-Jul-28 02:28N 57°00' E 011°45'8 9.2
2014-Jul-28 01:33N 56°52' E 011°50'9 9.2
2014-Jul-28 00:33N 56°44' E 011°55'9 9.2
2014-Jul-27 23:33N 56°34' E 011°58'9 9.2
2014-Jul-27 22:33N 56°26' E 012°06'12 9.5
2014-Jul-27 21:15N 56°17' E 012°20'7 9.8
2014-Jul-27 20:33N 56°11' E 012°27'1010.2
2014-Jul-27 19:33N 56°03' E 012°39'9 9.3
2014-Jul-27 18:33N 55°55' E 012°44'9 9.2
2014-Jul-27 17:33N 55°46' E 012°42'9 9.2
2014-Jul-27 16:33N 55°36' E 012°42'9 8.9
2014-Jul-27 15:33N 55°27' E 012°42'9 8.9
2014-Jul-27 14:33N 55°19' E 012°42'9 9.2
2014-Jul-27 13:33N 55°16' E 012°58'9 9.4
2014-Jul-27 12:33N 55°15' E 013°14'19 9.2
2014-Jul-27 10:33N 55°14' E 013°47'19 9.3
2014-Jul-27 08:30N 55°15' E 014°20'9 9.5
2014-Jul-27 07:32N 55°22' E 014°31'9 8.9
2014-Jul-27 06:33N 55°27' E 014°44'9 9.1
2014-Jul-27 05:33N 55°27' E 014°60'10 9.1
2014-Jul-27 04:30N 55°28' E 015°17'9 9.0
2014-Jul-27 03:33N 55°28' E 015°32'9 8.9
2014-Jul-27 02:33N 55°29' E 015°48'11 8.9
2014-Jul-27 01:16N 55°30' E 016°08'25 9.1
2014-Jul-26 22:33N 55°32' E 016°51'9 9.3
2014-Jul-26 21:33N 55°33' E 017°08'9 9.4
2014-Jul-26 20:33N 55°34' E 017°24'10 9.5
2014-Jul-26 19:33N 55°35' E 017°41'10 9.6
2014-Jul-26 18:33N 55°35' E 017°58'9 9.3
2014-Jul-26 17:33N 55°36' E 018°14'9 9.4
2014-Jul-26 16:33N 55°37' E 018°31'9 9.2
2014-Jul-26 15:33N 55°37' E 018°47'9 9.0
2014-Jul-26 14:33N 55°38' E 019°03'9 9.1
2014-Jul-26 13:33N 55°39' E 019°19'9 9.1
2014-Jul-26 12:33N 55°40' E 019°35'9 9.2
2014-Jul-26 11:33N 55°41' E 019°51'9 9.1
2014-Jul-26 10:33N 55°42' E 020°08'9 9.1
2014-Jul-26 09:31N 55°42' E 020°24'10 9.3
2014-Jul-26 08:27N 55°43' E 020°42'14 0.5
2014-Jul-25 05:29N 55°43' E 021°06'7 7.3
2014-Jul-25 04:31N 55°42' E 020°54'9 9.5
2014-Jul-25 03:33N 55°39' E 020°39'10 9.9
2014-Jul-25 02:33N 55°35' E 020°23'10 9.8
2014-Jul-25 01:33N 55°31' E 020°07'10 9.8
2014-Jul-25 00:33N 55°28' E 019°51'10 9.8
2014-Jul-24 23:34N 55°24' E 019°35'10 9.7
2014-Jul-24 22:33N 55°21' E 019°19'10 9.6
2014-Jul-24 21:33N 55°17' E 019°03'10 9.6
2014-Jul-24 20:33N 55°13' E 018°48'10 9.6
2014-Jul-24 19:33N 55°09' E 018°33'9 9.5
2014-Jul-24 18:33N 55°06' E 018°17'9 9.2
2014-Jul-24 17:33N 55°02' E 018°02'9 9.2
2014-Jul-24 16:33N 54°59' E 017°48'9 9.3
2014-Jul-24 15:33N 54°55' E 017°33'9 9.1
2014-Jul-24 14:33N 54°52' E 017°17'9 9.0
2014-Jul-24 13:33N 54°50' E 017°02'9 8.9
2014-Jul-24 12:33N 54°48' E 016°47'9 8.9
2014-Jul-24 11:33N 54°47' E 016°32'9 8.8
2014-Jul-24 10:33N 54°42' E 016°18'9 9.1
2014-Jul-24 09:33N 54°38' E 016°05'9 9.0
2014-Jul-24 08:33N 54°33' E 015°51'9 9.0
2014-Jul-24 07:33N 54°29' E 015°38'9 9.0
2014-Jul-24 06:33N 54°24' E 015°25'9 9.2
2014-Jul-24 05:33N 54°19' E 015°11'10 9.6
2014-Jul-24 04:33N 54°14' E 014°57'10 9.8
2014-Jul-24 03:31N 54°09' E 014°42'9 9.5
2014-Jul-24 02:33N 54°05' E 014°29'9 8.9
2014-Jul-24 01:33N 53°59' E 014°16'8 7.6
2014-Jul-24 00:33N 53°52' E 014°17'9 9.2
2014-Jul-23 23:33N 53°44' E 014°26'10 9.9
2014-Jul-23 22:33N 53°36' E 014°35'  

Dump ship's entire track history